Time;durP1;ratioP1;P1;durP2;ratioP2;P2;SDS_P1;SDS_P2;PMS_P1;PMS_P2;Temp;Humidity;BMP_temperature;BMP_pressure;BME280_temperature;BME280_humidity;BME280_pressure;Samples;Min_cycle;Max_cycle;Signal;HPM_P1;HPM_P2
2021/06/10 00:02:19;;;;;;;4.97;4.22;;;24.40;63.70;;;;;;5014670;28;20040;-55
2021/06/10 00:04:45;;;;;;;4.72;4.25;;;24.30;63.50;;;;;;5004701;28;20390;-57
2021/06/10 00:07:12;;;;;;;3.92;3.53;;;24.30;63.70;;;;;;5011087;28;20038;-58
2021/06/10 00:09:38;;;;;;;4.45;4.00;;;24.30;63.50;;;;;;5011680;28;20053;-58
2021/06/10 00:12:05;;;;;;;5.57;4.47;;;24.30;63.60;;;;;;5011365;28;20030;-47
2021/06/10 00:14:31;;;;;;;3.72;3.33;;;24.30;63.50;;;;;;5011899;28;20036;-57
2021/06/10 00:16:57;;;;;;;5.75;3.85;;;24.30;63.40;;;;;;5011673;28;20112;-58
2021/06/10 00:19:22;;;;;;;4.63;4.20;;;24.30;63.50;;;;;;5010914;28;20052;-58
2021/06/10 00:21:48;;;;;;;4.40;4.00;;;24.30;63.30;;;;;;5012211;28;20113;-53
2021/06/10 00:24:14;;;;;;;6.70;4.40;;;24.30;63.40;;;;;;5010921;28;20034;-58
2021/06/10 00:26:39;;;;;;;4.18;3.75;;;24.30;63.20;;;;;;5010419;28;20070;-59
2021/06/10 00:29:05;;;;;;;4.50;3.92;;;24.30;63.50;;;;;;5011787;28;20471;-47
2021/06/10 00:31:32;;;;;;;5.07;4.32;;;24.30;63.30;;;;;;5011596;28;20030;-58
2021/06/10 00:33:59;;;;;;;4.15;3.72;;;24.30;63.40;;;;;;5011709;28;20034;-59
2021/06/10 00:36:24;;;;;;;5.30;3.90;;;24.30;63.30;;;;;;5010802;28;20029;-58
2021/06/10 00:38:50;;;;;;;5.18;4.28;;;24.30;63.50;;;;;;5011710;28;20029;-59
2021/06/10 00:41:16;;;;;;;4.22;3.65;;;24.30;63.60;;;;;;5011001;28;20030;-59
2021/06/10 00:43:42;;;;;;;6.00;3.78;;;24.30;63.30;;;;;;5011262;28;20026;-55
2021/06/10 00:46:08;;;;;;;4.38;3.75;;;24.30;63.30;;;;;;5010818;28;20097;-58
2021/06/10 00:48:34;;;;;;;4.95;3.90;;;24.30;63.50;;;;;;5010855;28;20034;-58
2021/06/10 00:51:01;;;;;;;5.00;4.35;;;24.30;63.20;;;;;;5011016;28;20030;-58
2021/06/10 00:53:27;;;;;;;4.43;4.03;;;24.30;63.30;;;;;;5013481;28;20484;-59
2021/06/10 00:55:56;;;;;;;4.30;3.90;;;24.30;63.20;;;;;;5011144;28;20033;-56
2021/06/10 00:58:23;;;;;;;4.70;3.78;;;24.30;63.20;;;;;;5010745;28;20054;-59
2021/06/10 01:00:49;;;;;;;5.47;4.43;;;24.30;63.20;;;;;;5011604;28;20029;-59
2021/06/10 01:03:15;;;;;;;4.70;3.90;;;24.30;63.30;;;;;;5002354;28;20391;-59
2021/06/10 01:05:43;;;;;;;3.97;3.58;;;24.30;63.30;;;;;;5011097;28;20036;-59
2021/06/10 01:08:24;;;;;;;4.20;3.80;;;24.30;63.10;;;;;;5010408;28;20141;-58
2021/06/10 01:11:16;;;;;;;5.60;3.70;;;24.30;63.10;;;;;;5043201;28;20430;-59
2021/06/10 01:14:36;;;;;;;3.95;3.63;;;24.30;63.10;;;;;;5011491;28;20391;-59
2021/06/10 01:17:03;;;;;;;4.97;3.75;;;24.30;62.90;;;;;;4984298;28;20053;-56
2021/06/10 01:19:32;;;;;;;4.63;3.63;;;24.30;62.90;;;;;;5005885;28;20479;-59
2021/06/10 01:22:01;;;;;;;4.43;3.65;;;24.30;63.00;;;;;;5014576;28;20050;-59
2021/06/10 01:24:35;;;;;;;4.00;3.67;;;24.30;63.10;;;;;;5010451;28;20145;-52
2021/06/10 01:27:19;;;;;;;4.20;3.80;;;24.30;63.00;;;;;;5019058;28;20042;-58
2021/06/10 01:29:52;;;;;;;4.65;4.05;;;24.30;63.00;;;;;;5011165;28;20028;-59
2021/06/10 01:32:19;;;;;;;4.50;4.05;;;24.20;62.90;;;;;;5010331;28;20077;-58
2021/06/10 01:34:46;;;;;;;3.67;3.38;;;24.30;62.80;;;;;;5010548;28;20033;-58
2021/06/10 01:37:11;;;;;;;4.07;3.67;;;24.30;63.00;;;;;;5010260;28;20026;-58
2021/06/10 01:39:38;;;;;;;4.18;3.78;;;24.30;62.80;;;;;;5010775;28;20033;-59
2021/06/10 01:42:05;;;;;;;4.22;3.70;;;24.20;62.70;;;;;;5014228;28;20501;-50
2021/06/10 01:44:32;;;;;;;4.35;3.80;;;24.30;62.80;;;;;;5014440;28;20026;-58
2021/06/10 01:46:58;;;;;;;3.90;3.50;;;24.20;62.90;;;;;;5014770;28;20038;-58
2021/06/10 01:49:25;;;;;;;5.32;3.63;;;24.20;62.80;;;;;;5013368;28;20057;-58
2021/06/10 01:51:53;;;;;;;6.07;3.53;;;24.20;62.80;;;;;;5014107;28;20555;-58
2021/06/10 01:54:19;;;;;;;3.70;3.40;;;24.20;62.60;;;;;;5013522;28;20076;-58
2021/06/10 01:56:46;;;;;;;4.47;3.97;;;24.20;62.80;;;;;;5014371;28;20037;-57
2021/06/10 01:59:15;;;;;;;3.90;3.58;;;24.20;63.00;;;;;;5013503;28;20033;-58
2021/06/10 02:01:41;;;;;;;5.97;3.60;;;24.20;63.00;;;;;;5014470;28;20073;-58
2021/06/10 02:04:09;;;;;;;4.15;3.72;;;24.20;62.70;;;;;;5013489;28;20032;-50
2021/06/10 02:06:35;;;;;;;3.95;3.55;;;24.20;62.80;;;;;;5014118;28;20152;-58
2021/06/10 02:09:04;;;;;;;4.30;3.90;;;24.20;62.60;;;;;;5010767;28;20442;-54
2021/06/10 02:11:33;;;;;;;4.00;3.60;;;24.20;62.60;;;;;;5019585;28;20029;-59
2021/06/10 02:13:59;;;;;;;4.13;3.72;;;24.20;62.50;;;;;;5014243;28;20034;-59
2021/06/10 02:16:27;;;;;;;4.22;3.83;;;24.20;62.50;;;;;;5012967;28;20033;-59
2021/06/10 02:18:53;;;;;;;4.53;3.92;;;24.20;62.50;;;;;;5012920;28;20034;-58
2021/06/10 02:21:19;;;;;;;6.10;3.42;;;24.20;62.60;;;;;;5013597;28;20474;-58
2021/06/10 02:23:46;;;;;;;4.00;3.50;;;24.20;62.70;;;;;;5045587;28;20038;-59
2021/06/10 02:26:13;;;;;;;3.88;3.45;;;24.20;62.70;;;;;;5013319;28;20030;-58
2021/06/10 02:28:39;;;;;;;4.32;3.78;;;24.20;62.70;;;;;;5013520;28;20045;-58
2021/06/10 02:31:07;;;;;;;4.10;3.70;;;24.20;62.50;;;;;;5013847;28;20037;-59
2021/06/10 02:33:36;;;;;;;4.07;3.65;;;24.20;62.50;;;;;;5013709;28;20033;-59
2021/06/10 02:36:04;;;;;;;4.57;3.63;;;24.20;62.60;;;;;;5013754;28;20030;-58
2021/06/10 02:38:31;;;;;;;4.22;3.83;;;24.20;62.70;;;;;;5012697;28;20274;-50
2021/06/10 02:41:00;;;;;;;4.55;3.78;;;24.20;62.90;;;;;;5013694;28;20034;-59
2021/06/10 02:43:30;;;;;;;3.70;3.35;;;24.20;62.80;;;;;;5012714;28;20030;-59
2021/06/10 02:45:56;;;;;;;4.40;3.83;;;24.20;63.10;;;;;;5013665;28;20029;-59
2021/06/10 02:48:23;;;;;;;4.13;3.75;;;24.20;62.80;;;;;;5021011;28;20037;-58
2021/06/10 02:50:50;;;;;;;4.13;3.65;;;24.20;62.70;;;;;;5031364;28;20034;-59
2021/06/10 02:53:19;;;;;;;4.40;3.70;;;24.20;62.50;;;;;;5023916;28;20638;-58
2021/06/10 02:55:48;;;;;;;4.93;3.78;;;24.20;62.40;;;;;;5013290;28;20045;-59
2021/06/10 02:58:19;;;;;;;4.28;3.88;;;24.20;62.60;;;;;;5012312;28;20422;-59
2021/06/10 03:00:45;;;;;;;4.05;3.65;;;24.20;63.10;;;;;;5015359;28;20040;-58
2021/06/10 03:03:13;;;;;;;3.80;3.30;;;24.20;62.40;;;;;;5012672;28;20116;-56
2021/06/10 03:05:41;;;;;;;3.85;3.40;;;24.20;62.20;;;;;;5013061;28;20097;-59
2021/06/10 03:08:11;;;;;;;4.95;3.90;;;24.20;62.30;;;;;;5012687;28;20095;-48
2021/06/10 03:10:37;;;;;;;4.30;3.88;;;24.20;62.40;;;;;;5012773;28;20033;-58
2021/06/10 03:13:04;;;;;;;4.18;3.78;;;24.20;62.30;;;;;;5012920;28;20038;-58
2021/06/10 03:15:32;;;;;;;5.75;3.78;;;24.20;62.20;;;;;;5011923;28;20060;-59
2021/06/10 03:17:58;;;;;;;4.78;3.80;;;24.20;62.10;;;;;;5012849;28;20486;-59
2021/06/10 03:20:25;;;;;;;5.32;4.10;;;24.20;62.30;;;;;;5017253;28;20066;-58
2021/06/10 03:22:51;;;;;;;3.90;3.50;;;24.20;62.20;;;;;;5012768;28;20372;-59
2021/06/10 03:25:18;;;;;;;4.05;3.60;;;24.20;62.10;;;;;;5011780;28;20038;-58
2021/06/10 03:27:45;;;;;;;3.60;3.30;;;24.20;62.20;;;;;;5012576;28;20025;-59
2021/06/10 03:30:11;;;;;;;4.00;3.60;;;24.20;62.30;;;;;;5010398;28;20097;-47
2021/06/10 03:32:38;;;;;;;4.32;3.67;;;24.10;61.90;;;;;;5012456;28;20058;-59
2021/06/10 03:35:04;;;;;;;4.13;3.72;;;24.20;62.40;;;;;;5012388;28;20436;-59
2021/06/10 03:37:31;;;;;;;4.30;3.90;;;24.20;62.20;;;;;;5011771;28;20115;-54
2021/06/10 03:39:59;;;;;;;5.70;4.00;;;24.20;62.20;;;;;;5012371;28;20092;-59
2021/06/10 03:42:25;;;;;;;5.03;3.47;;;24.20;62.00;;;;;;5012044;28;20092;-58
2021/06/10 03:44:52;;;;;;;4.57;4.10;;;24.20;62.00;;;;;;5012117;28;20554;-54
2021/06/10 03:47:18;;;;;;;4.18;3.78;;;24.20;62.10;;;;;;5011691;28;20029;-58
2021/06/10 03:49:44;;;;;;;3.88;3.58;;;24.20;62.20;;;;;;5012351;28;20038;-59
2021/06/10 03:52:10;;;;;;;3.55;3.25;;;24.20;62.30;;;;;;5011844;28;20072;-47
2021/06/10 03:54:36;;;;;;;4.13;3.72;;;24.20;62.20;;;;;;5015389;28;20105;-58
2021/06/10 03:57:02;;;;;;;5.15;4.03;;;24.10;62.10;;;;;;5014499;28;20114;-58
2021/06/10 03:59:28;;;;;;;4.53;3.60;;;24.20;62.20;;;;;;5011075;28;20065;-59
2021/06/10 04:01:53;;;;;;;4.45;3.58;;;24.10;62.20;;;;;;5016057;28;20510;-58
2021/06/10 04:04:19;;;;;;;4.03;3.60;;;24.10;62.10;;;;;;5011274;28;20034;-59
2021/06/10 04:06:46;;;;;;;4.18;3.63;;;24.10;62.10;;;;;;5011973;28;20033;-59
2021/06/10 04:09:12;;;;;;;4.32;3.65;;;24.10;62.10;;;;;;5003339;28;20080;-49
2021/06/10 04:11:38;;;;;;;4.10;3.70;;;24.10;61.90;;;;;;5012033;28;20399;-59
2021/06/10 04:14:05;;;;;;;3.83;3.53;;;24.10;62.00;;;;;;5012104;28;20030;-59
2021/06/10 04:16:31;;;;;;;4.00;3.30;;;24.10;61.90;;;;;;5010626;28;20018;-57
2021/06/10 04:18:56;;;;;;;3.65;3.28;;;24.10;61.80;;;;;;5011889;28;20044;-58
2021/06/10 04:21:23;;;;;;;4.40;4.00;;;24.10;62.10;;;;;;5011177;28;20030;-58
2021/06/10 04:23:49;;;;;;;4.75;3.85;;;24.10;62.10;;;;;;5017600;28;20029;-59
2021/06/10 04:26:16;;;;;;;5.38;4.47;;;24.10;62.10;;;;;;5011186;28;20114;-56
2021/06/10 04:28:45;;;;;;;4.25;3.85;;;24.10;61.90;;;;;;5011701;28;20140;-58
2021/06/10 04:31:13;;;;;;;4.25;3.85;;;24.10;61.60;;;;;;5013863;28;20037;-47
2021/06/10 04:33:39;;;;;;;4.47;4.07;;;24.10;61.70;;;;;;5011727;28;20026;-57
2021/06/10 04:36:05;;;;;;;4.55;4.05;;;24.10;61.60;;;;;;5011464;28;20541;-52
2021/06/10 04:38:30;;;;;;;3.95;3.55;;;24.10;61.80;;;;;;5011049;28;20116;-52
2021/06/10 04:40:56;;;;;;;5.13;4.63;;;24.10;61.50;;;;;;5011648;28;20069;-58
2021/06/10 04:43:22;;;;;;;4.60;3.58;;;24.10;61.60;;;;;;5010741;28;20030;-58
2021/06/10 04:45:48;;;;;;;4.90;3.65;;;24.10;61.50;;;;;;5009447;28;20026;-58
2021/06/10 04:48:13;;;;;;;3.83;3.53;;;24.10;61.80;;;;;;5001221;28;20042;-47
2021/06/10 04:50:39;;;;;;;4.82;3.92;;;24.10;61.50;;;;;;5004128;28;20026;-58
2021/06/10 04:53:07;;;;;;;3.92;3.50;;;24.10;61.50;;;;;;5002742;28;20050;-58
2021/06/10 04:55:33;;;;;;;4.45;4.05;;;24.10;61.50;;;;;;5006180;28;20259;-59
2021/06/10 04:57:59;;;;;;;4.20;3.58;;;24.20;61.40;;;;;;5002259;28;20034;-58
2021/06/10 05:00:25;;;;;;;4.30;3.50;;;24.10;61.30;;;;;;5009560;28;20073;-57
2021/06/10 05:02:50;;;;;;;4.20;3.58;;;24.10;61.70;;;;;;5006679;28;20495;-58
2021/06/10 05:05:16;;;;;;;3.60;3.30;;;24.10;61.30;;;;;;5001339;28;20035;-54
2021/06/10 05:07:42;;;;;;;4.13;3.72;;;24.10;61.50;;;;;;5006460;28;20395;-56
2021/06/10 05:10:08;;;;;;;5.40;3.90;;;24.10;61.60;;;;;;5001264;28;20062;-57
2021/06/10 05:12:34;;;;;;;4.22;3.83;;;24.10;61.40;;;;;;5006477;28;20200;-58
2021/06/10 05:15:00;;;;;;;6.20;3.50;;;24.10;61.50;;;;;;5013243;28;20105;-58
2021/06/10 05:17:26;;;;;;;4.95;3.85;;;24.10;61.50;;;;;;5014551;28;20113;-60
2021/06/10 05:19:51;;;;;;;4.97;3.70;;;24.10;61.50;;;;;;5015020;28;20037;-58
2021/06/10 05:22:17;;;;;;;4.53;3.60;;;24.10;61.30;;;;;;5013976;28;20060;-57
2021/06/10 05:24:43;;;;;;;3.58;3.20;;;24.10;61.50;;;;;;5014878;28;20095;-58
2021/06/10 05:27:09;;;;;;;4.03;3.63;;;24.10;61.60;;;;;;5014480;28;20129;-58
2021/06/10 05:29:38;;;;;;;5.43;3.45;;;24.10;61.50;;;;;;5014205;28;20030;-58
2021/06/10 05:32:08;;;;;;;4.55;4.00;;;24.10;61.70;;;;;;5014966;28;20506;-58
2021/06/10 05:34:34;;;;;;;4.15;3.75;;;24.10;61.70;;;;;;5014037;28;20092;-59
2021/06/10 05:37:00;;;;;;;4.50;3.40;;;24.20;61.70;;;;;;5015060;28;20392;-59
2021/06/10 05:39:25;;;;;;;3.92;3.38;;;24.20;61.70;;;;;;5014035;28;20056;-58
2021/06/10 05:41:53;;;;;;;5.18;3.60;;;24.20;61.60;;;;;;5014142;28;20022;-55
2021/06/10 05:44:18;;;;;;;4.80;3.30;;;24.30;62.00;;;;;;5014105;28;20359;-54
2021/06/10 05:46:44;;;;;;;4.70;3.45;;;24.30;62.00;;;;;;5014411;28;20033;-58
2021/06/10 05:49:11;;;;;;;5.97;3.70;;;24.30;61.90;;;;;;5014559;28;20032;-59
2021/06/10 05:51:36;;;;;;;6.00;3.55;;;24.30;62.40;;;;;;5013891;28;20046;-57
2021/06/10 05:54:02;;;;;;;8.75;3.70;;;24.30;62.40;;;;;;5014499;28;20101;-53
2021/06/10 05:56:28;;;;;;;6.38;3.30;;;24.30;62.80;;;;;;5013564;28;20038;-58
2021/06/10 05:58:54;;;;;;;11.30;4.05;;;24.30;62.80;;;;;;5014520;28;20037;-55
2021/06/10 06:01:19;;;;;;;15.15;3.63;;;24.30;63.20;;;;;;5013845;28;20065;-58
2021/06/10 06:03:45;;;;;;;8.52;3.80;;;24.40;64.00;;;;;;5020904;28;20395;-58
2021/06/10 06:06:11;;;;;;;8.73;3.88;;;24.40;64.40;;;;;;5032862;28;20104;-57
2021/06/10 06:08:36;;;;;;;11.38;3.83;;;24.40;64.20;;;;;;5021298;28;20093;-58
2021/06/10 06:11:03;;;;;;;7.15;3.33;;;24.40;64.20;;;;;;5013745;28;20029;-58
2021/06/10 06:13:44;;;;;;;10.05;3.70;;;24.40;64.10;;;;;;5013289;28;20030;-59
2021/06/10 06:16:11;;;;;;;5.90;3.73;;;24.40;64.10;;;;;;5018186;28;20483;-59
2021/06/10 06:18:37;;;;;;;7.95;3.83;;;24.30;64.40;;;;;;5014156;28;20757;-58
2021/06/10 06:21:03;;;;;;;8.05;4.28;;;24.30;64.50;;;;;;5013615;28;20041;-58
2021/06/10 06:23:30;;;;;;;10.35;4.25;;;24.30;64.70;;;;;;5012709;28;20041;-58
2021/06/10 06:25:56;;;;;;;8.52;3.55;;;24.30;64.70;;;;;;5012168;28;20038;-58
2021/06/10 06:28:22;;;;;;;11.35;3.30;;;24.40;64.70;;;;;;5012084;28;20038;-58
2021/06/10 06:30:47;;;;;;;8.52;3.92;;;24.30;64.60;;;;;;5013876;28;20034;-58
2021/06/10 06:33:13;;;;;;;6.72;3.58;;;24.30;64.50;;;;;;5013604;28;20066;-57
2021/06/10 06:35:41;;;;;;;7.57;3.42;;;24.40;64.60;;;;;;5004725;28;20533;-59
2021/06/10 06:38:07;;;;;;;6.72;3.65;;;24.40;64.60;;;;;;5013787;28;20069;-60
2021/06/10 06:40:33;;;;;;;12.93;4.20;;;24.40;64.50;;;;;;5012601;28;20060;-59
2021/06/10 06:42:59;;;;;;;6.18;3.65;;;24.40;64.50;;;;;;5013376;28;20376;-58
2021/06/10 06:45:24;;;;;;;12.32;4.25;;;24.40;64.50;;;;;;5014044;28;20463;-57
2021/06/10 06:47:50;;;;;;;5.00;2.88;;;24.40;64.50;;;;;;5014357;28;20084;-59
2021/06/10 06:50:16;;;;;;;5.13;3.00;;;24.40;64.50;;;;;;5013064;28;20487;-48
2021/06/10 06:52:41;;;;;;;5.05;3.63;;;24.40;64.50;;;;;;5012827;28;20057;-58
2021/06/10 06:55:08;;;;;;;6.55;3.53;;;24.40;64.50;;;;;;5013124;28;20069;-57
2021/06/10 06:57:34;;;;;;;5.07;3.50;;;24.50;64.50;;;;;;5012012;28;20030;-58
2021/06/10 06:59:59;;;;;;;6.45;3.33;;;24.50;64.50;;;;;;5012934;28;20037;-56
2021/06/10 07:02:25;;;;;;;9.68;3.80;;;24.50;64.40;;;;;;5012233;28;20022;-57
2021/06/10 07:04:50;;;;;;;4.13;3.10;;;24.50;64.40;;;;;;5013281;28;20125;-58
2021/06/10 07:07:16;;;;;;;8.98;3.60;;;24.50;64.40;;;;;;5007854;28;20030;-52
2021/06/10 07:09:42;;;;;;;6.00;3.75;;;24.50;64.40;;;;;;5012222;28;20041;-59
2021/06/10 07:12:08;;;;;;;4.10;3.03;;;24.50;64.40;;;;;;5012417;28;20380;-58
2021/06/10 07:14:34;;;;;;;7.07;3.25;;;24.50;64.50;;;;;;5011674;28;20029;-58
2021/06/10 07:17:00;;;;;;;8.13;3.90;;;24.50;64.50;;;;;;5013170;28;20042;-57
2021/06/10 07:19:25;;;;;;;4.10;2.90;;;24.50;64.50;;;;;;5011013;28;20033;-58
2021/06/10 07:21:51;;;;;;;6.13;3.35;;;24.50;64.50;;;;;;5013337;28;20105;-58
2021/06/10 07:24:17;;;;;;;7.53;4.03;;;24.50;64.40;;;;;;5012197;28;20117;-48
2021/06/10 07:26:44;;;;;;;6.03;2.70;;;24.50;64.40;;;;;;5012128;28;20029;-59
2021/06/10 07:29:16;;;;;;;5.28;3.90;;;24.50;64.40;;;;;;5012396;28;20030;-58
2021/06/10 07:31:42;;;;;;;4.55;3.08;;;24.50;64.40;;;;;;5011578;28;20037;-58
2021/06/10 07:34:08;;;;;;;4.40;2.97;;;24.50;64.40;;;;;;5012308;28;20041;-57
2021/06/10 07:36:34;;;;;;;7.18;3.75;;;24.50;64.40;;;;;;5011347;28;20030;-57
2021/06/10 07:39:06;;;;;;;7.70;3.00;;;24.50;64.30;;;;;;5012640;28;20033;-58
2021/06/10 07:41:32;;;;;;;10.73;3.60;;;24.50;64.40;;;;;;5011829;28;20021;-58
2021/06/10 07:43:58;;;;;;;9.50;3.67;;;24.50;64.30;;;;;;5011890;28;20485;-59
2021/06/10 07:46:23;;;;;;;4.22;3.08;;;24.50;64.40;;;;;;5015181;28;20032;-57
2021/06/10 07:48:49;;;;;;;6.20;3.03;;;24.50;64.30;;;;;;5011841;28;20038;-57
2021/06/10 07:51:15;;;;;;;5.28;3.60;;;24.50;64.30;;;;;;5011903;28;20073;-58
2021/06/10 07:53:41;;;;;;;4.63;3.30;;;24.50;64.30;;;;;;5011368;28;20522;-58
2021/06/10 07:56:07;;;;;;;5.85;3.25;;;24.50;64.20;;;;;;5011862;28;20040;-58
2021/06/10 07:58:34;;;;;;;5.95;3.28;;;24.50;64.20;;;;;;5011035;28;20034;-58
2021/06/10 08:01:00;;;;;;;6.95;3.70;;;24.50;64.20;;;;;;5012266;28;20164;-59
2021/06/10 08:03:26;;;;;;;4.88;3.63;;;24.60;64.30;;;;;;5011030;28;20060;-58
2021/06/10 08:05:52;;;;;;;6.05;3.65;;;24.60;64.20;;;;;;5011987;28;20066;-57
2021/06/10 08:08:19;;;;;;;6.65;4.13;;;24.50;64.10;;;;;;5005532;28;20034;-48
2021/06/10 08:10:45;;;;;;;4.40;3.30;;;24.60;64.20;;;;;;5011647;28;20031;-58
2021/06/10 08:13:12;;;;;;;6.05;2.90;;;24.60;64.10;;;;;;5011710;28;20432;-58
2021/06/10 08:15:39;;;;;;;3.78;3.00;;;24.60;64.10;;;;;;5013861;28;20609;-58
2021/06/10 08:18:05;;;;;;;5.03;3.40;;;24.60;64.10;;;;;;5015849;28;20045;-58
2021/06/10 08:20:32;;;;;;;3.60;2.85;;;24.60;64.00;;;;;;5010512;28;20044;-58
2021/06/10 08:23:01;;;;;;;3.72;2.95;;;24.60;64.00;;;;;;5014145;28;20041;-58
2021/06/10 08:25:32;;;;;;;3.92;2.85;;;24.60;64.00;;;;;;5010857;28;20018;-53
2021/06/10 08:28:04;;;;;;;4.32;3.47;;;24.60;63.90;;;;;;5020034;28;20038;-58
2021/06/10 08:30:31;;;;;;;4.80;3.00;;;24.60;63.90;;;;;;5010160;28;20451;-58
2021/06/10 08:32:57;;;;;;;3.88;3.22;;;24.60;63.80;;;;;;5011695;28;20029;-58
2021/06/10 08:35:23;;;;;;;3.78;3.42;;;24.60;63.70;;;;;;5010997;28;20084;-58
2021/06/10 08:37:49;;;;;;;4.35;3.42;;;24.60;63.80;;;;;;5011359;28;20029;-54
2021/06/10 08:40:14;;;;;;;4.78;3.83;;;24.60;63.80;;;;;;5011561;28;20038;-58
2021/06/10 08:42:42;;;;;;;5.38;3.25;;;24.60;64.00;;;;;;5010809;28;20034;-57
2021/06/10 08:45:12;;;;;;;4.63;3.13;;;24.60;63.70;;;;;;5011599;28;20026;-57
2021/06/10 08:47:40;;;;;;;4.18;3.35;;;24.60;63.70;;;;;;5013722;28;20057;-58
2021/06/10 08:50:08;;;;;;;4.95;3.30;;;24.60;63.70;;;;;;5013732;28;20475;-57
2021/06/10 08:52:34;;;;;;;5.10;3.55;;;24.60;63.70;;;;;;5014397;28;20451;-58
2021/06/10 08:55:01;;;;;;;3.42;2.97;;;24.60;63.80;;;;;;5015452;28;20044;-58
2021/06/10 08:57:26;;;;;;;3.75;3.00;;;24.60;63.70;;;;;;5014594;28;20109;-56
2021/06/10 08:59:52;;;;;;;4.22;3.70;;;24.60;63.70;;;;;;5014746;28;20454;-57
2021/06/10 09:02:18;;;;;;;3.53;2.92;;;24.60;63.70;;;;;;5015166;28;20072;-47
2021/06/10 09:04:43;;;;;;;7.88;3.38;;;24.60;63.70;;;;;;5014609;28;20475;-57
2021/06/10 09:07:10;;;;;;;3.17;2.88;;;24.60;63.70;;;;;;5011920;28;20467;-57
2021/06/10 09:09:38;;;;;;;4.40;3.30;;;24.60;63.70;;;;;;5014826;28;20030;-58
2021/06/10 09:12:07;;;;;;;4.70;3.10;;;24.60;63.50;;;;;;5015418;28;20421;-58
2021/06/10 09:14:59;;;;;;;3.80;3.25;;;24.60;63.80;;;;;;5014572;28;20022;-57
2021/06/10 09:17:35;;;;;;;3.67;3.35;;;24.60;63.60;;;;;;5022244;28;20061;-57
2021/06/10 09:20:23;;;;;;;4.35;3.47;;;24.60;63.60;;;;;;5015394;28;20068;-58
2021/06/10 09:22:51;;;;;;;3.95;3.10;;;24.60;63.70;;;;;;5015391;28;20022;-57
2021/06/10 09:25:19;;;;;;;4.65;3.22;;;24.70;63.70;;;;;;5015006;28;20033;-58
2021/06/10 09:27:55;;;;;;;3.70;3.20;;;24.60;63.50;;;;;;5014791;28;20463;-56
2021/06/10 09:30:53;;;;;;;4.72;3.25;;;24.60;63.60;;;;;;5014195;28;20034;-49
2021/06/10 09:33:25;;;;;;;4.30;3.42;;;24.60;63.60;;;;;;4997440;28;20463;-55
2021/06/10 09:35:51;;;;;;;4.88;3.38;;;24.60;63.70;;;;;;5014655;28;20080;-57
2021/06/10 09:38:20;;;;;;;4.32;3.38;;;24.70;63.60;;;;;;5014917;28;20113;-56
2021/06/10 09:40:48;;;;;;;3.85;3.20;;;24.70;63.80;;;;;;5014293;28;20121;-57
2021/06/10 09:43:14;;;;;;;5.07;3.35;;;24.70;63.80;;;;;;5014675;28;20033;-57
2021/06/10 09:45:47;;;;;;;4.53;3.33;;;24.70;63.60;;;;;;5017264;28;20873;-57
2021/06/10 09:48:12;;;;;;;5.13;3.75;;;24.60;63.60;;;;;;5016064;28;20041;-58
2021/06/10 09:50:45;;;;;;;4.20;3.60;;;24.60;63.60;;;;;;5013568;28;20080;-58
2021/06/10 09:53:23;;;;;;;4.47;3.22;;;24.60;63.40;;;;;;5014206;28;20046;-56
2021/06/10 09:55:54;;;;;;;3.45;3.15;;;24.60;63.30;;;;;;5013813;28;20030;-57
2021/06/10 09:58:32;;;;;;;3.55;3.20;;;24.70;64.00;;;;;;5014252;28;20064;-57
2021/06/10 10:01:04;;;;;;;5.50;3.92;;;24.70;63.90;;;;;;5007186;28;20390;-57
2021/06/10 10:03:40;;;;;;;;;;;24.70;63.60;;;;;;5013912;28;20075;-57
2021/06/10 10:06:15;;;;;;;4.97;3.80;;;24.70;63.60;;;;;;5014417;28;19917;-58
2021/06/10 10:08:42;;;;;;;4.85;3.83;;;24.70;63.40;;;;;;5013361;28;20173;-57
2021/06/10 10:11:07;;;;;;;4.55;3.90;;;24.70;63.60;;;;;;5014270;28;20026;-57
2021/06/10 10:13:33;;;;;;;4.70;4.22;;;24.70;63.40;;;;;;5013587;28;20029;-57
2021/06/10 10:16:03;;;;;;;5.32;4.30;;;24.70;63.50;;;;;;5018252;28;20033;-57
2021/06/10 10:18:29;;;;;;;5.13;4.03;;;24.70;63.30;;;;;;5013275;28;20037;-57
2021/06/10 10:21:03;;;;;;;4.50;4.03;;;24.70;63.30;;;;;;5013787;28;20076;-57
2021/06/10 10:23:28;;;;;;;4.35;3.90;;;24.70;63.40;;;;;;5013180;28;20479;-58
2021/06/10 10:26:05;;;;;;;5.35;4.18;;;24.80;63.50;;;;;;5014060;28;20037;-57
2021/06/10 10:28:36;;;;;;;3.95;3.60;;;24.70;63.30;;;;;;5013273;28;20041;-58
2021/06/10 10:31:05;;;;;;;4.30;3.70;;;24.80;63.30;;;;;;5012388;28;20040;-58
2021/06/10 10:33:31;;;;;;;4.65;4.15;;;24.70;63.20;;;;;;5012516;28;20265;-56
2021/06/10 10:36:03;;;;;;;4.88;3.90;;;24.80;63.30;;;;;;5013923;28;20037;-57
2021/06/10 10:38:38;;;;;;;5.47;4.28;;;24.80;63.50;;;;;;5012859;28;20398;-57
2021/06/10 10:41:10;;;;;;;6.55;4.00;;;24.70;63.30;;;;;;5013702;28;20113;-57
2021/06/10 10:43:35;;;;;;;4.45;4.03;;;24.70;63.20;;;;;;5012653;28;20025;-57
2021/06/10 10:46:18;;;;;;;4.88;4.38;;;24.80;63.20;;;;;;5015150;28;20030;-58
2021/06/10 10:48:45;;;;;;;6.88;3.67;;;24.80;63.20;;;;;;5012350;28;20113;-58
2021/06/10 10:51:37;;;;;;;4.40;4.00;;;24.80;63.30;;;;;;5006838;28;20048;-57
2021/06/10 10:54:33;;;;;;;4.68;4.13;;;24.70;63.20;;;;;;5008854;28;20042;-58
2021/06/10 10:56:59;;;;;;;5.43;4.53;;;24.80;63.50;;;;;;5013048;28;20407;-58
2021/06/10 10:59:24;;;;;;;5.30;4.43;;;24.80;63.30;;;;;;5012863;28;20407;-47
2021/06/10 11:02:07;;;;;;;6.00;4.85;;;24.80;63.40;;;;;;5012454;28;20026;-55
2021/06/10 11:04:59;;;;;;;4.90;4.20;;;24.80;63.40;;;;;;5012113;28;20484;-56
2021/06/10 11:07:38;;;;;;;5.57;4.45;;;24.80;63.20;;;;;;5006004;28;20055;-47
2021/06/10 11:10:30;;;;;;;5.30;4.80;;;24.80;63.30;;;;;;5006554;28;20518;-57
2021/06/10 11:12:56;;;;;;;;;;;24.80;63.20;;;;;;5008726;28;20123;-58
2021/06/10 11:15:33;;;;;;;5.18;4.68;;;24.80;63.10;;;;;;5013341;28;20384;-47
2021/06/10 11:18:06;;;;;;;5.18;4.70;;;24.80;63.10;;;;;;5013639;28;20032;-56
2021/06/10 11:20:38;;;;;;;5.18;4.57;;;24.80;63.30;;;;;;5012374;28;20418;-57
2021/06/10 11:23:10;;;;;;;7.10;5.07;;;24.80;63.20;;;;;;5012842;28;20038;-53
2021/06/10 11:25:41;;;;;;;5.43;4.93;;;24.80;63.20;;;;;;5012235;28;20056;-55
2021/06/10 11:28:13;;;;;;;5.28;4.78;;;24.80;63.10;;;;;;5012595;28;20041;-54
2021/06/10 11:30:40;;;;;;;;;;;24.80;63.20;;;;;;5012188;28;20042;-53
2021/06/10 11:33:17;;;;;;;5.57;4.97;;;24.80;62.90;;;;;;5012241;28;19952;-56
2021/06/10 11:36:10;;;;;;;5.80;5.20;;;24.80;63.10;;;;;;5012057;28;20100;-57
2021/06/10 11:38:40;;;;;;;6.18;5.43;;;24.80;63.00;;;;;;5011746;28;20104;-58
2021/06/10 11:41:18;;;;;;;5.95;5.00;;;24.80;63.10;;;;;;5012581;28;20080;-56
2021/06/10 11:43:55;;;;;;;5.47;4.97;;;24.80;63.10;;;;;;5003485;28;20096;-54
2021/06/10 11:46:28;;;;;;;6.40;5.00;;;24.80;62.80;;;;;;5014262;28;20026;-58
2021/06/10 11:48:54;;;;;;;5.72;5.18;;;24.80;63.00;;;;;;5012370;28;20068;-57
2021/06/10 11:51:32;;;;;;;6.05;4.97;;;24.80;63.00;;;;;;5012376;28;20429;-58
2021/06/10 11:54:11;;;;;;;4.78;4.28;;;24.80;62.90;;;;;;5004304;28;20022;-58
2021/06/10 11:56:37;;;;;;;6.82;5.22;;;24.80;62.70;;;;;;5011735;28;20112;-58
2021/06/10 11:59:19;;;;;;;5.43;4.93;;;24.80;62.80;;;;;;5011845;28;20541;-58
2021/06/10 12:02:00;;;;;;;6.03;5.50;;;24.80;62.70;;;;;;5011091;28;20113;-56
2021/06/10 12:04:30;;;;;;;5.75;5.10;;;24.80;62.80;;;;;;5011419;28;20037;-48
2021/06/10 12:07:10;;;;;;;5.35;4.85;;;24.80;62.70;;;;;;5012074;28;20026;-58
2021/06/10 12:09:50;;;;;;;7.38;4.93;;;24.80;62.70;;;;;;5011121;28;20394;-57
2021/06/10 12:12:39;;;;;;;6.43;5.82;;;24.80;62.60;;;;;;5012000;28;20030;-58
2021/06/10 12:15:07;;;;;;;5.68;5.00;;;24.80;62.70;;;;;;5012031;28;20045;-58
2021/06/10 12:18:00;;;;;;;5.80;5.30;;;24.80;62.70;;;;;;5017741;28;20084;-57
2021/06/10 12:20:35;;;;;;;5.80;5.10;;;24.90;62.60;;;;;;5011449;28;20383;-48
2021/06/10 12:23:03;;;;;;;6.10;5.50;;;24.80;62.50;;;;;;5012153;28;20026;-57
2021/06/10 12:25:31;;;;;;;6.65;5.95;;;24.80;62.40;;;;;;5010980;28;20036;-53
2021/06/10 12:27:59;;;;;;;5.63;5.10;;;24.80;62.50;;;;;;5010590;28;20042;-58
2021/06/10 12:30:36;;;;;;;7.70;5.80;;;24.80;62.30;;;;;;5010304;28;20033;-47
2021/06/10 12:33:21;;;;;;;5.22;4.65;;;24.80;62.50;;;;;;5011335;28;20383;-55
2021/06/10 12:35:55;;;;;;;6.03;5.20;;;24.90;62.40;;;;;;5010743;28;20459;-55
2021/06/10 12:38:34;;;;;;;5.53;5.03;;;24.90;62.20;;;;;;5018857;28;20064;-56
2021/06/10 12:41:32;;;;;;;5.93;5.32;;;24.90;62.30;;;;;;5031746;28;20386;-57
2021/06/10 12:44:09;;;;;;;5.35;4.85;;;24.90;62.20;;;;;;5008482;28;20046;-57
2021/06/10 12:46:50;;;;;;;5.45;4.95;;;24.90;62.20;;;;;;5014221;28;20113;-59
2021/06/10 12:49:17;;;;;;;5.28;4.78;;;24.90;62.10;;;;;;5011777;28;20026;-58
2021/06/10 12:51:48;;;;;;;6.85;5.13;;;24.90;62.30;;;;;;5010078;28;20057;-57
2021/06/10 12:54:19;;;;;;;6.82;5.47;;;24.90;62.30;;;;;;5011353;28;20034;-56
2021/06/10 12:56:47;;;;;;;6.53;5.93;;;24.90;62.30;;;;;;5011000;28;20030;-57
2021/06/10 12:59:26;;;;;;;6.28;5.68;;;24.90;62.00;;;;;;5011496;28;20025;-56